createdAt,value
2023-01-11T00:01:22.508Z,100450.63
2023-01-11T00:03:51.357Z,100435.78
2023-01-11T00:06:21.291Z,100445.41
2023-01-11T00:08:49.879Z,100434.06
2023-01-11T00:11:18.938Z,100437.53
2023-01-11T00:13:47.552Z,100430.56
2023-01-11T00:16:16.106Z,100414.88
2023-01-11T00:18:44.703Z,100422.72
2023-01-11T00:21:13.135Z,100431.44
2023-01-11T00:23:43.153Z,100420.09
2023-01-11T00:26:14.249Z,100416.63
2023-01-11T00:28:43.018Z,100409.66
2023-01-11T00:31:11.556Z,100414.88
2023-01-11T00:33:40.121Z,100406.16
2023-01-11T00:36:10.049Z,100405.28
2023-01-11T00:38:54.217Z,100411.41
2023-01-11T00:41:43.558Z,100388.72
2023-01-11T00:44:30.484Z,100402.66
2023-01-11T00:47:16.672Z,100393.94
2023-01-11T00:49:45.838Z,100377.38
2023-01-11T00:52:14.416Z,100382.63
2023-01-11T00:54:43.731Z,100373.00
2023-01-11T00:57:13.668Z,100379.09
2023-01-11T00:59:42.268Z,100371.22
2023-01-11T01:02:13.399Z,100374.72
2023-01-11T01:04:43.539Z,100378.19
2023-01-11T01:07:12.759Z,100378.22
2023-01-11T01:09:41.205Z,100376.47
2023-01-11T01:12:10.420Z,100365.13
2023-01-11T01:14:39.613Z,100370.34
2023-01-11T01:17:10.002Z,100377.31
2023-01-11T01:19:40.279Z,100368.59
2023-01-11T01:22:09.187Z,100375.56
2023-01-11T01:24:37.813Z,100379.03
2023-01-11T01:27:06.219Z,100375.53
2023-01-11T01:29:34.648Z,100372.06
2023-01-11T01:32:04.795Z,100363.31
2023-01-11T01:34:37.512Z,100371.16
2023-01-11T01:37:06.584Z,100374.69
2023-01-11T01:39:35.476Z,100362.41
2023-01-11T01:42:04.268Z,100372.03
2023-01-11T01:45:02.633Z,100369.41
2023-01-11T01:47:42.172Z,100365.91
2023-01-11T01:50:17.804Z,100357.16
2023-01-11T01:52:52.012Z,100369.38
2023-01-11T01:55:30.299Z,100367.66
2023-01-11T01:58:01.387Z,100367.63
2023-01-11T02:00:30.129Z,100372.00
2023-01-11T02:03:03.133Z,100343.16
2023-01-11T02:05:31.776Z,100364.13
2023-01-11T02:08:02.078Z,100366.75
2023-01-11T02:10:30.653Z,100371.09
2023-01-11T02:13:02.231Z,100362.34
2023-01-11T02:15:31.397Z,100360.59
2023-01-11T02:18:01.241Z,100363.22
2023-01-11T02:20:56.529Z,100358.84
2023-01-11T02:24:11.685Z,100363.19
2023-01-11T02:27:07.303Z,100354.44
2023-01-11T02:29:52.502Z,100350.06
2023-01-11T02:32:32.920Z,100358.78
2023-01-11T02:35:12.496Z,100352.66
2023-01-11T02:37:52.405Z,100355.25
2023-01-11T02:40:29.345Z,100354.38
2023-01-11T02:43:23.567Z,100351.72
2023-01-11T02:46:01.913Z,100343.00
2023-01-11T02:48:38.295Z,100339.47
2023-01-11T02:51:11.991Z,100341.19
2023-01-11T02:53:47.471Z,100344.69
2023-01-11T02:56:24.754Z,100344.66
2023-01-11T02:58:56.266Z,100346.38
2023-01-11T03:01:26.497Z,100350.72
2023-01-11T03:03:56.189Z,100350.72
2023-01-11T03:06:28.697Z,100343.72
2023-01-11T03:09:32.237Z,100348.94
2023-01-11T03:12:37.576Z,100334.97
2023-01-11T03:15:33.283Z,100338.44
2023-01-11T03:18:20.414Z,100344.56
2023-01-11T03:20:57.398Z,100355.00
2023-01-11T03:23:36.198Z,100341.03
2023-01-11T03:26:17.358Z,100347.97
2023-01-11T03:28:55.480Z,100351.44
2023-01-11T03:31:32.262Z,100350.59
2023-01-11T03:34:14.199Z,100361.03
2023-01-11T03:36:52.228Z,100360.19
2023-01-11T03:39:29.134Z,100367.09
2023-01-11T03:42:01.608Z,100363.63
2023-01-11T03:44:34.237Z,100364.47
2023-01-11T03:47:08.433Z,100374.94
2023-01-11T03:49:41.763Z,100375.81
2023-01-11T03:52:13.294Z,100379.28
2023-01-11T03:54:42.432Z,100371.44
2023-01-11T03:57:17.978Z,100388.00
2023-01-11T03:59:46.410Z,100385.38
2023-01-11T04:02:19.643Z,100394.09
2023-01-11T04:04:49.956Z,100394.97
2023-01-11T04:07:18.773Z,100404.53
2023-01-11T04:09:47.634Z,100393.22
2023-01-11T04:12:16.156Z,100393.19
2023-01-11T04:14:44.953Z,100401.06
2023-01-11T04:17:13.504Z,100410.66
2023-01-11T04:19:43.617Z,100401.88
2023-01-11T04:22:13.557Z,100401.91
2023-01-11T04:24:42.090Z,100416.75
2023-01-11T04:27:10.742Z,100407.97
2023-01-11T04:29:39.349Z,100412.38
2023-01-11T04:32:07.750Z,100407.09
2023-01-11T04:34:36.546Z,100419.31
2023-01-11T04:37:05.081Z,100416.66
2023-01-11T04:39:35.407Z,100425.41
2023-01-11T04:42:22.285Z,100427.16
2023-01-11T04:44:52.685Z,100421.06
2023-01-11T04:47:23.844Z,100435.00
2023-01-11T04:49:52.621Z,100430.63
2023-01-11T04:52:22.108Z,100435.00
2023-01-11T04:54:52.609Z,100445.47
2023-01-11T04:57:21.729Z,100446.31
2023-01-11T04:59:50.699Z,100451.56
2023-01-11T05:02:19.473Z,100461.16
2023-01-11T05:04:48.104Z,100459.41
2023-01-11T05:07:16.643Z,100462.03
2023-01-11T05:09:45.252Z,100476.00
2023-01-11T05:12:15.247Z,100482.97
2023-01-11T05:14:43.811Z,100483.84
2023-01-11T05:17:15.476Z,100484.72
2023-01-11T05:19:44.152Z,100482.09
2023-01-11T05:22:13.033Z,100482.09
2023-01-11T05:24:41.540Z,100484.75
2023-01-11T05:27:09.914Z,100494.38
2023-01-11T05:29:39.849Z,100494.34
2023-01-11T05:32:08.390Z,100487.41
2023-01-11T05:34:37.030Z,100511.06
2023-01-11T05:37:05.819Z,100499.75
2023-01-11T05:39:34.263Z,100509.44
2023-01-11T05:42:02.683Z,100505.09
2023-01-11T05:44:48.315Z,100518.22
2023-01-11T05:47:18.348Z,100509.53
2023-01-11T05:49:46.737Z,100513.91
2023-01-11T05:52:15.165Z,100509.56
2023-01-11T05:54:43.858Z,100498.22
2023-01-11T05:57:12.392Z,100499.97
2023-01-11T05:59:41.261Z,100510.47
2023-01-11T06:02:10.247Z,100498.28
2023-01-11T06:04:41.039Z,100503.50
2023-01-11T06:07:10.132Z,100503.53
2023-01-11T06:09:39.003Z,100519.22
2023-01-11T06:12:08.907Z,100515.72
2023-01-11T06:14:38.313Z,100504.38
2023-01-11T06:17:06.990Z,100523.56
2023-01-11T06:19:35.857Z,100517.50
2023-01-11T06:22:06.498Z,100520.13
2023-01-11T06:24:35.163Z,100541.06
2023-01-11T06:27:10.294Z,100541.91
2023-01-11T06:29:40.490Z,100539.28
2023-01-11T06:32:11.556Z,100524.50
2023-01-11T06:38:20.502Z,100540.28
2023-01-11T06:40:56.504Z,100550.72
2023-01-11T06:43:30.557Z,100559.50
2023-01-11T06:46:02.576Z,100560.34
2023-01-11T06:48:33.983Z,100549.88
2023-01-11T06:51:11.110Z,100556.88
2023-01-11T06:53:43.633Z,100549.00
2023-01-11T06:56:24.940Z,100567.38
2023-01-11T07:01:40.959Z,100578.75
2023-01-11T07:04:10.029Z,100578.75
2023-01-11T07:06:51.377Z,100573.53
2023-01-11T07:09:27.562Z,100586.63
2023-01-11T07:12:00.636Z,100592.75
2023-01-11T07:14:31.507Z,100595.38
2023-01-11T07:17:01.571Z,100603.25
2023-01-11T07:19:32.514Z,100599.78
2023-01-11T07:22:05.442Z,100605.88
2023-01-11T07:24:52.956Z,100603.25
2023-01-11T07:27:33.845Z,100622.44
2023-01-11T07:30:17.896Z,100613.72
2023-01-11T07:32:50.440Z,100616.34
2023-01-11T07:35:19.479Z,100624.22
2023-01-11T07:37:49.475Z,100625.09
2023-01-11T07:40:21.577Z,100625.97
2023-01-11T07:43:11.247Z,100619.00
2023-01-11T07:45:47.024Z,100636.47
2023-01-11T07:48:30.699Z,100634.72
2023-01-11T07:51:02.346Z,100640.81
2023-01-11T07:53:42.721Z,100638.22
2023-01-11T07:56:28.636Z,100633.84
2023-01-11T08:01:55.184Z,100649.56
2023-01-11T08:04:34.213Z,100665.25
2023-01-11T08:07:09.256Z,100664.41
2023-01-11T08:09:42.365Z,100673.13
2023-01-11T08:12:35.243Z,100674.00
2023-01-11T08:15:07.779Z,100660.94
2023-01-11T08:17:46.506Z,100667.91
2023-01-11T08:20:29.328Z,100688.00
2023-01-11T08:23:02.978Z,100684.50
2023-01-11T08:25:33.894Z,100695.88
2023-01-11T08:28:38.757Z,100688.84
2023-01-11T08:34:24.823Z,100698.47
2023-01-11T08:37:03.104Z,100691.50
2023-01-11T08:39:36.544Z,100702.84
2023-01-11T08:42:10.213Z,100696.72
2023-01-11T08:47:32.353Z,100687.13
2023-01-11T08:50:01.017Z,100700.22
2023-01-11T08:52:29.607Z,100714.19
2023-01-11T08:54:59.518Z,100721.16
2023-01-11T08:57:31.081Z,100723.78
2023-01-11T09:00:02.294Z,100713.25
2023-01-11T09:02:32.798Z,100732.44
2023-01-11T09:05:03.289Z,100718.44
2023-01-11T09:07:34.034Z,100728.03
2023-01-11T09:10:20.723Z,100717.56
2023-01-11T09:12:53.730Z,100751.59
2023-01-11T09:15:24.519Z,100753.34
2023-01-11T09:17:57.633Z,100734.09
2023-01-11T09:20:26.507Z,100757.66
2023-01-11T09:22:55.492Z,100759.38
2023-01-11T09:25:24.959Z,100759.31
2023-01-11T09:27:55.329Z,100755.81
2023-01-11T09:30:28.745Z,100778.56
2023-01-11T09:33:05.973Z,100793.41
2023-01-11T09:35:39.652Z,100797.78
2023-01-11T09:38:08.900Z,100793.47
2023-01-11T09:40:53.592Z,100783.03
2023-01-11T09:43:27.924Z,100790.09
2023-01-11T09:46:06.740Z,100782.22
2023-01-11T09:48:44.366Z,100784.00
2023-01-11T09:51:16.768Z,100781.34
2023-01-11T09:53:52.630Z,100786.59
2023-01-11T09:56:47.626Z,100778.75
2023-01-11T10:02:42.399Z,100786.56
2023-01-11T10:05:36.220Z,100793.53
2023-01-11T10:18:59.403Z,100766.47
2023-01-11T10:21:49.645Z,100775.28
2023-01-11T10:24:39.216Z,100772.66
2023-01-11T10:27:22.722Z,100764.75
2023-01-11T10:30:13.090Z,100781.38
2023-01-11T10:33:06.569Z,100770.84
2023-01-11T10:36:31.146Z,100769.06
2023-01-11T10:39:22.365Z,100769.06
2023-01-11T10:42:02.620Z,100778.72
2023-01-11T10:44:48.865Z,100777.84
2023-01-11T10:47:22.842Z,100774.38
2023-01-11T10:50:00.171Z,100784.00
2023-01-11T10:52:40.657Z,100789.25
2023-01-11T10:55:14.475Z,100795.34
2023-01-11T10:57:59.827Z,100805.00
2023-01-11T11:00:42.296Z,100798.03
2023-01-11T11:03:55.241Z,100801.53
2023-01-11T11:06:37.454Z,100814.63
2023-01-11T11:09:21.465Z,100812.88
2023-01-11T11:11:56.645Z,100809.38
2023-01-11T11:14:35.378Z,100805.88
2023-01-11T11:17:19.678Z,100816.41
2023-01-11T11:19:48.517Z,100819.03
2023-01-11T11:22:17.097Z,100819.03
2023-01-11T11:24:51.860Z,100812.94
2023-01-11T11:27:28.441Z,100820.78
2023-01-11T11:29:58.698Z,100824.31
2023-01-11T11:32:47.289Z,100815.53
2023-01-11T11:35:32.669Z,100819.03
2023-01-11T11:38:01.577Z,100813.78
2023-01-11T11:40:36.630Z,100826.88
2023-01-11T11:43:18.573Z,100826.03
2023-01-11T11:45:56.782Z,100827.78
2023-01-11T11:48:27.992Z,100826.03
2023-01-11T11:50:59.141Z,100827.78
2023-01-11T11:53:36.156Z,100829.50
2023-01-11T11:56:17.186Z,100832.13
2023-01-11T11:58:46.739Z,100826.88
2023-01-11T12:01:27.891Z,100828.59
2023-01-11T12:03:59.820Z,100839.97
2023-01-11T12:06:30.248Z,100841.69
2023-01-11T12:09:01.823Z,100832.94
2023-01-11T12:11:35.984Z,100839.88
2023-01-11T12:14:18.258Z,100834.59
2023-01-11T12:16:47.822Z,100832.03
2023-01-11T12:19:42.872Z,100834.69
2023-01-11T12:22:16.248Z,100825.06
2023-01-11T12:24:44.943Z,100840.84
2023-01-11T12:27:32.693Z,100840.84
2023-01-11T12:30:23.399Z,100830.34
2023-01-11T12:33:25.529Z,100832.09
2023-01-11T12:36:03.492Z,100833.84
2023-01-11T12:38:40.795Z,100826.84
2023-01-11T12:41:43.947Z,100825.06
2023-01-11T12:44:21.900Z,100827.69
2023-01-11T12:47:11.965Z,100816.38
2023-01-11T12:49:47.875Z,100819.91
2023-01-11T12:52:45.553Z,100833.88
2023-01-11T12:55:30.551Z,100824.28
2023-01-11T12:58:09.097Z,100841.75
2023-01-11T13:01:22.688Z,100832.16
2023-01-11T13:04:40.085Z,100849.63
2023-01-11T13:07:23.381Z,100844.38
2023-01-11T13:10:18.204Z,100842.63
2023-01-11T13:12:53.815Z,100849.59
2023-01-11T13:15:42.094Z,100863.59
2023-01-11T13:18:22.971Z,100854.88
2023-01-11T13:21:02.516Z,100856.63
2023-01-11T13:23:40.688Z,100831.28
2023-01-11T13:26:22.827Z,100839.16
2023-01-11T13:28:57.856Z,100850.50
2023-01-11T13:31:27.540Z,100848.75
2023-01-11T13:34:04.856Z,100854.00
2023-01-11T13:36:41.652Z,100849.59
2023-01-11T13:39:21.964Z,100849.63
2023-01-11T13:41:55.638Z,100848.75
2023-01-11T13:44:28.246Z,100849.66
2023-01-11T13:47:12.523Z,100845.28
2023-01-11T13:49:55.347Z,100853.13
2023-01-11T13:52:38.363Z,100832.16
2023-01-11T13:55:24.977Z,100846.16
2023-01-11T13:57:59.640Z,100847.88
2023-01-11T14:00:34.722Z,100845.25
2023-01-11T14:03:17.726Z,100847.03
2023-01-11T14:05:56.801Z,100858.38
2023-01-11T14:09:00.608Z,100868.88
2023-01-11T14:11:42.272Z,100843.50
2023-01-11T14:14:47.773Z,100857.50
2023-01-11T14:17:32.474Z,100871.50
2023-01-11T14:20:14.292Z,100872.38
2023-01-11T14:22:54.520Z,100854.88
2023-01-11T14:25:26.807Z,100860.09
2023-01-11T14:28:30.074Z,100857.44
2023-01-11T14:31:34.466Z,100864.41
2023-01-11T14:35:07.863Z,100867.94
2023-01-11T14:38:31.028Z,100864.44
2023-01-11T14:41:48.476Z,100852.22
2023-01-11T14:44:36.441Z,100860.97
2023-01-11T14:47:51.719Z,100858.31
2023-01-11T14:50:33.721Z,100864.41
2023-01-11T14:53:06.783Z,100861.75
2023-01-11T14:55:45.232Z,100866.09
2023-01-11T14:58:26.415Z,100857.31
2023-01-11T15:01:11.969Z,100852.94
2023-01-11T15:03:58.516Z,100851.09
2023-01-11T15:06:32.714Z,100871.16
2023-01-11T15:09:02.929Z,100878.09
2023-01-11T15:11:41.032Z,100881.53
2023-01-11T15:14:26.379Z,100878.88
2023-01-11T15:17:22.284Z,100884.94
2023-01-11T15:19:53.440Z,100884.03
2023-01-11T15:22:31.069Z,100879.66
2023-01-11T15:25:03.546Z,100881.41
2023-01-11T15:27:38.042Z,100886.63
2023-01-11T15:30:30.968Z,100879.63
2023-01-11T15:33:29.887Z,100881.38
2023-01-11T15:36:08.116Z,100879.63
2023-01-11T15:38:43.820Z,100885.75
2023-01-11T15:41:51.826Z,100886.63
2023-01-11T15:44:36.580Z,100888.34
2023-01-11T15:47:31.183Z,100879.53
2023-01-11T15:50:29.389Z,100868.09
2023-01-11T15:53:48.910Z,100869.75
2023-01-11T15:57:04.012Z,100868.81
2023-01-11T16:00:33.587Z,100881.88
2023-01-11T16:03:31.688Z,100869.63
2023-01-11T16:06:14.237Z,100886.25
2023-01-11T16:08:57.286Z,100874.91
2023-01-11T16:11:35.392Z,100873.97
2023-01-11T16:14:39.802Z,100870.44
2023-01-11T16:17:14.297Z,100869.53
2023-01-11T16:19:46.041Z,100876.53
2023-01-11T16:22:19.735Z,100882.69
2023-01-11T16:24:54.245Z,100885.34
2023-01-11T16:27:28.416Z,100880.16
2023-01-11T16:29:58.324Z,100887.16
2023-01-11T16:32:32.832Z,100866.25
2023-01-11T16:35:02.901Z,100883.72
2023-01-11T16:37:38.507Z,100879.38
2023-01-11T16:40:14.627Z,100882.88
2023-01-11T16:42:48.312Z,100884.53
2023-01-11T16:45:22.566Z,100888.88
2023-01-11T16:48:05.880Z,100874.91
2023-01-11T16:50:36.058Z,100874.84
2023-01-11T16:53:05.573Z,100884.41
2023-01-11T16:55:37.994Z,100880.00
2023-01-11T16:58:09.151Z,100888.72
2023-01-11T17:00:40.416Z,100893.19
2023-01-11T17:03:29.643Z,100885.38
2023-01-11T17:06:20.000Z,100888.06
2023-01-11T17:08:52.244Z,100899.47
2023-01-11T17:11:41.865Z,100890.75
2023-01-11T17:14:47.594Z,100892.53
2023-01-11T17:17:18.568Z,100887.31
2023-01-11T17:19:49.498Z,100894.31
2023-01-11T17:22:23.762Z,100894.31
2023-01-11T17:24:56.177Z,100896.03
2023-01-11T17:27:30.059Z,100885.59
2023-01-11T17:30:00.963Z,100885.59
2023-01-11T17:32:37.591Z,100889.09
2023-01-11T17:35:12.806Z,100876.00
2023-01-11T17:37:43.677Z,100864.66
2023-01-11T17:40:23.773Z,100863.78
2023-01-11T17:43:10.851Z,100863.75
2023-01-11T17:45:40.559Z,100861.91
2023-01-11T17:48:16.764Z,100858.34
2023-01-11T17:50:50.070Z,100869.69
2023-01-11T17:53:26.938Z,100858.34
2023-01-11T17:55:57.744Z,100858.44
2023-01-11T17:58:28.647Z,100853.16
2023-01-11T18:01:20.844Z,100857.44
2023-01-11T18:03:53.643Z,100844.31
2023-01-11T18:06:30.387Z,100844.31
2023-01-11T18:09:01.027Z,100851.34
2023-01-11T18:11:31.967Z,100833.84
2023-01-11T18:14:04.431Z,100831.25
2023-01-11T18:16:33.354Z,100826.84
2023-01-11T18:19:23.845Z,100826.00
2023-01-11T18:21:54.554Z,100832.16
2023-01-11T18:24:32.352Z,100825.22
2023-01-11T18:27:27.619Z,100825.25
2023-01-11T18:29:58.006Z,100811.34
2023-01-11T18:32:28.494Z,100815.75
2023-01-11T18:35:00.586Z,100814.88
2023-01-11T18:37:29.259Z,100799.19
2023-01-11T18:39:59.400Z,100794.84
2023-01-11T18:42:32.701Z,100796.59
2023-01-11T18:45:01.750Z,100793.97
2023-01-11T18:47:30.568Z,100791.34
2023-01-11T18:50:00.456Z,100783.47
2023-01-11T18:52:29.718Z,100771.25
2023-01-11T18:54:58.826Z,100751.19
2023-01-11T18:57:27.650Z,100752.97
2023-01-11T18:59:56.412Z,100752.97
2023-01-11T19:02:28.374Z,100743.38
2023-01-11T19:04:59.919Z,100724.16
2023-01-11T19:07:28.471Z,100740.78
2023-01-11T19:09:59.379Z,100731.19
2023-01-11T19:12:27.818Z,100722.50
2023-01-11T19:14:56.499Z,100722.53
2023-01-11T19:17:27.374Z,100719.91
2023-01-11T19:19:55.866Z,100712.94
2023-01-11T19:22:26.744Z,100719.06
2023-01-11T19:24:55.964Z,100715.59
2023-01-11T19:27:24.846Z,100711.25
2023-01-11T19:29:56.670Z,100717.34
2023-01-11T19:32:25.825Z,100697.34
2023-01-11T19:34:58.143Z,100690.34
2023-01-11T19:37:30.221Z,100694.75
2023-01-11T19:39:58.816Z,100678.16
2023-01-11T19:42:27.497Z,100683.41
2023-01-11T19:44:56.109Z,100669.47
2023-01-11T19:47:24.684Z,100685.19
2023-01-11T19:49:56.530Z,100686.84
2023-01-11T19:52:25.097Z,100686.75
2023-01-11T19:54:56.861Z,100680.53
2023-01-11T19:57:25.524Z,100663.91
2023-01-11T19:59:54.054Z,100681.25
2023-01-11T20:02:23.477Z,100667.28
2023-01-11T20:04:52.213Z,100644.56
2023-01-11T20:07:20.775Z,100660.25
2023-01-11T20:09:49.464Z,100662.84
2023-01-11T20:12:19.736Z,100653.25
2023-01-11T20:14:48.204Z,100653.25
2023-01-11T20:17:21.063Z,100644.50
2023-01-11T20:19:54.563Z,100670.63
2023-01-11T20:22:23.641Z,100641.00
2023-01-11T20:24:52.248Z,100642.69
2023-01-11T20:27:22.265Z,100659.25
2023-01-11T20:29:50.847Z,100647.94
2023-01-11T20:32:39.881Z,100650.53
2023-01-11T20:35:19.720Z,100632.25
2023-01-11T20:37:55.432Z,100627.84
2023-01-11T20:40:24.590Z,100630.50
2023-01-11T20:42:55.126Z,100636.59
2023-01-11T20:45:23.569Z,100648.78
2023-01-11T20:47:52.076Z,100620.94
2023-01-11T20:50:20.757Z,100622.66
2023-01-11T20:52:50.535Z,100614.88
2023-01-11T20:55:19.878Z,100608.78
2023-01-11T20:57:48.882Z,100623.56
2023-01-11T21:00:20.332Z,100601.78
2023-01-11T21:02:50.724Z,100601.84
2023-01-11T21:05:19.492Z,100607.91
2023-01-11T21:07:50.798Z,100585.31
2023-01-11T21:10:19.635Z,100605.31
2023-01-11T21:12:50.438Z,100602.72
2023-01-11T21:15:20.517Z,100601.00
2023-01-11T21:17:49.093Z,100606.19
2023-01-11T21:20:18.359Z,100595.75
2023-01-11T21:22:47.388Z,100625.34
2023-01-11T21:25:17.565Z,100618.41
2023-01-11T21:27:48.832Z,100605.41
2023-01-11T21:30:20.896Z,100600.16
2023-01-11T21:32:49.313Z,100592.34
2023-01-11T21:35:18.085Z,100575.81
2023-01-11T21:37:46.821Z,100577.50
2023-01-11T21:40:15.687Z,100581.00
2023-01-11T21:42:44.573Z,100599.28
2023-01-11T21:45:13.293Z,100581.91
2023-01-11T21:47:45.642Z,100583.63
2023-01-11T21:50:14.608Z,100575.81
2023-01-11T21:52:43.157Z,100585.34
2023-01-11T21:55:12.236Z,100595.81
2023-01-11T21:57:40.889Z,100564.47
2023-01-11T22:00:14.160Z,100584.50
2023-01-11T22:02:44.275Z,100593.22
2023-01-11T22:05:12.856Z,100594.06
2023-01-11T22:07:43.735Z,100586.28
2023-01-11T22:10:13.118Z,100580.16
2023-01-11T22:12:41.570Z,100575.81
2023-01-11T22:15:11.675Z,100579.31
2023-01-11T22:17:40.191Z,100574.03
2023-01-11T22:20:12.504Z,100575.75
2023-01-11T22:22:40.999Z,100560.13
2023-01-11T22:25:10.251Z,100566.19
2023-01-11T22:27:38.751Z,100573.16
2023-01-11T22:30:08.858Z,100552.28
2023-01-11T22:32:37.687Z,100567.91
2023-01-11T22:35:07.075Z,100547.00
2023-01-11T22:37:37.055Z,100569.66
2023-01-11T22:40:06.383Z,100588.78
2023-01-11T22:42:34.933Z,100550.47
2023-01-11T22:45:04.570Z,100559.19
2023-01-11T22:47:33.160Z,100581.88
2023-01-11T22:50:01.637Z,100576.63
2023-01-11T22:52:30.653Z,100571.44
2023-01-11T22:55:00.545Z,100588.88
2023-01-11T22:57:29.833Z,100565.38
2023-01-11T22:59:58.997Z,100568.00
2023-01-11T23:02:27.635Z,100568.88
2023-01-11T23:04:56.195Z,100581.16
2023-01-11T23:07:24.767Z,100582.91
2023-01-11T23:09:53.309Z,100569.91
2023-01-11T23:12:40.784Z,100579.50
2023-01-11T23:15:10.887Z,100591.69
2023-01-11T23:17:39.363Z,100593.44
2023-01-11T23:20:08.952Z,100589.09
2023-01-11T23:22:37.615Z,100596.94
2023-01-11T23:25:07.434Z,100610.91
2023-01-11T23:27:37.883Z,100602.19
2023-01-11T23:30:12.437Z,100609.88
2023-01-11T23:32:57.458Z,100596.66
2023-01-11T23:35:28.942Z,100595.72
2023-01-11T23:37:59.307Z,100598.31
2023-01-11T23:41:06.591Z,100606.16
2023-01-11T23:43:42.083Z,100587.03
2023-01-11T23:49:36.245Z,100604.66
2023-01-11T23:52:11.642Z,100578.53
2023-01-11T23:58:05.026Z,100603.03
